createdAt,value
2017-09-21T00:00:26.610Z,6.50
2017-09-21T00:02:54.091Z,6.03
2017-09-21T00:05:22.348Z,4.17
2017-09-21T00:07:49.841Z,5.43
2017-09-21T00:10:17.347Z,6.70
2017-09-21T00:12:59.710Z,4.00
2017-09-21T00:15:27.186Z,4.00
2017-09-21T00:20:29.694Z,3.80
2017-09-21T00:22:57.179Z,9.40
2017-09-21T00:25:24.658Z,7.10
2017-09-21T00:27:52.902Z,4.70
2017-09-21T00:30:20.376Z,4.93
2017-09-21T00:32:47.855Z,3.67
2017-09-21T00:35:16.116Z,7.10
2017-09-21T00:37:43.598Z,4.13
2017-09-21T00:40:11.841Z,4.80
2017-09-21T00:42:39.321Z,8.40
2017-09-21T00:45:06.816Z,7.60
2017-09-21T00:47:34.303Z,6.60
2017-09-21T00:50:01.774Z,7.43
2017-09-21T00:52:29.262Z,2.70
2017-09-21T00:55:03.915Z,11.40
2017-09-21T00:57:31.399Z,7.57
2017-09-21T00:59:58.873Z,5.23
2017-09-21T01:02:26.352Z,4.97
2017-09-21T01:04:53.843Z,6.37
2017-09-21T01:07:22.086Z,5.37
2017-09-21T01:09:49.570Z,4.23
2017-09-21T01:12:21.420Z,5.07
2017-09-21T01:15:04.552Z,3.33
2017-09-21T01:17:32.794Z,3.13
2017-09-21T01:20:00.292Z,4.47
2017-09-21T01:22:28.533Z,4.13
2017-09-21T01:24:56.023Z,2.93
2017-09-21T01:27:24.274Z,3.80
2017-09-21T01:29:51.771Z,5.43
2017-09-21T01:32:20.086Z,4.10
2017-09-21T01:34:48.391Z,5.93
2017-09-21T01:37:15.862Z,9.23
2017-09-21T01:39:43.347Z,4.80
2017-09-21T01:42:10.825Z,5.13
2017-09-21T01:44:47.543Z,3.00
2017-09-21T01:47:15.033Z,4.90
2017-09-21T01:49:51.056Z,2.90
2017-09-21T01:52:18.542Z,4.23
2017-09-21T01:54:46.793Z,7.40
2017-09-21T01:57:14.330Z,5.10
2017-09-21T01:59:41.810Z,5.10
2017-09-21T02:02:09.290Z,4.17
2017-09-21T02:04:37.550Z,4.93
2017-09-21T02:07:05.025Z,3.60
2017-09-21T02:12:15.309Z,4.70
2017-09-21T02:14:43.592Z,5.83
2017-09-21T02:17:11.838Z,4.83
2017-09-21T02:19:39.317Z,3.37
2017-09-21T02:27:02.583Z,8.73
2017-09-21T02:29:30.062Z,6.90
2017-09-21T02:31:57.544Z,4.77
2017-09-21T02:34:25.782Z,4.80
2017-09-21T02:36:53.263Z,5.20
2017-09-21T02:39:26.706Z,3.50
2017-09-21T02:42:09.064Z,7.00
2017-09-21T02:44:36.552Z,4.73
2017-09-21T02:47:04.039Z,7.43
2017-09-21T02:49:31.523Z,4.13
2017-09-21T02:51:58.996Z,3.83
2017-09-21T02:54:26.476Z,4.20
2017-09-21T03:00:13.296Z,4.70
2017-09-21T03:02:40.772Z,3.40
2017-09-21T03:05:19.727Z,3.30
2017-09-21T03:07:47.211Z,4.43
2017-09-21T03:10:14.691Z,5.60
2017-09-21T03:12:42.178Z,6.83
2017-09-21T03:15:10.443Z,8.90
2017-09-21T03:17:38.696Z,6.53
2017-09-21T03:20:06.178Z,5.53
2017-09-21T03:22:34.427Z,3.97
2017-09-21T03:25:01.914Z,7.10
2017-09-21T03:39:02.085Z,3.67
2017-09-21T03:41:29.558Z,4.40
2017-09-21T03:43:57.039Z,3.60
2017-09-21T03:46:37.979Z,5.97
2017-09-21T03:49:05.465Z,5.27
2017-09-21T03:51:33.714Z,5.20
2017-09-21T03:54:01.190Z,4.20
2017-09-21T03:56:28.674Z,7.83
2017-09-21T03:58:56.919Z,5.67
2017-09-21T04:01:24.401Z,7.37
2017-09-21T04:03:52.642Z,5.30
2017-09-21T04:06:20.136Z,3.63
2017-09-21T04:08:48.384Z,2.50
2017-09-21T04:11:15.867Z,3.63
2017-09-21T04:13:44.121Z,7.03
2017-09-21T04:23:33.107Z,6.70
2017-09-21T04:29:06.006Z,8.93
2017-09-21T04:31:33.500Z,4.40
2017-09-21T04:34:00.981Z,4.80
2017-09-21T04:36:28.472Z,3.70
2017-09-21T04:39:00.637Z,3.27
2017-09-21T04:41:28.120Z,5.40
2017-09-21T04:43:55.603Z,6.63
2017-09-21T04:46:23.084Z,5.60
2017-09-21T04:53:18.906Z,10.70
2017-09-21T04:55:46.389Z,4.80
2017-09-21T04:58:13.892Z,5.10
2017-09-21T05:00:41.371Z,5.73
2017-09-21T05:03:08.851Z,5.20
2017-09-21T05:05:40.198Z,11.87
2017-09-21T05:08:10.734Z,4.73
2017-09-21T05:10:38.208Z,4.20
2017-09-21T05:13:05.686Z,2.47
2017-09-21T05:15:33.936Z,12.70
2017-09-21T05:18:01.419Z,5.83
2017-09-21T05:20:29.658Z,5.23
2017-09-21T05:22:58.064Z,5.70
2017-09-21T05:25:26.310Z,9.50
2017-09-21T05:28:48.583Z,8.27
2017-09-21T05:31:27.669Z,10.47
2017-09-21T05:33:55.146Z,4.30
2017-09-21T05:36:22.624Z,6.30
2017-09-21T05:38:50.110Z,3.70
2017-09-21T05:41:29.926Z,5.27
2017-09-21T05:43:58.914Z,8.50
2017-09-21T05:46:26.434Z,7.60
2017-09-21T05:48:53.923Z,7.00
2017-09-21T05:51:22.804Z,5.87
2017-09-21T05:53:50.282Z,3.37
2017-09-21T05:56:17.769Z,7.63
2017-09-21T05:58:46.022Z,4.37
2017-09-21T06:01:13.503Z,3.00
2017-09-21T06:03:41.761Z,10.50
2017-09-21T06:06:09.244Z,9.00
2017-09-21T06:08:37.495Z,4.63
2017-09-21T06:11:04.974Z,8.50
2017-09-21T06:13:33.224Z,3.77
2017-09-21T06:16:03.327Z,13.73
2017-09-21T06:18:31.270Z,6.30
2017-09-21T06:20:58.758Z,7.07
2017-09-21T06:23:26.243Z,4.93
2017-09-21T06:25:53.722Z,9.50
2017-09-21T06:28:23.994Z,8.47
2017-09-21T06:30:51.470Z,5.90
2017-09-21T06:33:18.950Z,6.43
2017-09-21T06:35:46.427Z,5.33
2017-09-21T06:38:14.673Z,7.87
2017-09-21T06:40:42.155Z,6.83
2017-09-21T06:43:10.407Z,4.33
2017-09-21T06:45:37.898Z,5.03
2017-09-21T06:48:06.877Z,7.63
2017-09-21T06:50:35.117Z,5.40
2017-09-21T06:53:02.604Z,9.80
2017-09-21T06:55:30.079Z,5.93
2017-09-21T06:57:58.327Z,8.53
2017-09-21T07:00:25.807Z,9.00
2017-09-21T07:02:54.067Z,8.33
2017-09-21T07:05:21.550Z,12.33
2017-09-21T07:07:49.794Z,4.70
2017-09-21T07:10:17.271Z,10.53
2017-09-21T07:12:44.763Z,11.40
2017-09-21T07:15:12.242Z,6.50
2017-09-21T07:17:39.727Z,7.00
2017-09-21T07:20:09.275Z,4.30
2017-09-21T07:22:37.552Z,5.80
2017-09-21T07:25:05.047Z,3.93
2017-09-21T07:27:36.031Z,4.30
2017-09-21T07:30:03.506Z,4.17
2017-09-21T07:32:31.752Z,3.40
2017-09-21T07:34:59.231Z,2.77
2017-09-21T07:37:27.435Z,7.00
2017-09-21T07:39:54.918Z,4.23
2017-09-21T07:42:22.408Z,3.90
2017-09-21T07:45:01.741Z,3.40
2017-09-21T07:47:37.952Z,5.57
2017-09-21T07:50:05.423Z,5.30
2017-09-21T07:52:32.911Z,3.90
2017-09-21T07:55:00.392Z,6.53
2017-09-21T07:57:31.407Z,5.83
2017-09-21T07:59:58.896Z,11.43
2017-09-21T08:02:26.386Z,6.50
2017-09-21T08:04:53.862Z,13.23
2017-09-21T08:07:21.346Z,8.87
2017-09-21T08:09:48.829Z,15.70
2017-09-21T08:12:16.321Z,10.63
2017-09-21T08:14:43.814Z,10.03
2017-09-21T08:17:11.306Z,14.33
2017-09-21T08:19:38.787Z,13.00
2017-09-21T08:22:07.048Z,12.60
2017-09-21T08:24:35.302Z,10.57
2017-09-21T08:27:02.783Z,14.07
2017-09-21T08:29:30.263Z,16.00
2017-09-21T08:31:58.510Z,13.77
2017-09-21T08:34:25.988Z,11.77
2017-09-21T08:36:54.230Z,9.73
2017-09-21T08:39:21.713Z,16.93
2017-09-21T08:41:49.195Z,16.03
2017-09-21T08:44:17.438Z,12.97
2017-09-21T08:46:44.917Z,11.37
2017-09-21T08:49:13.161Z,16.20
2017-09-21T08:51:40.634Z,15.83
2017-09-21T08:54:08.124Z,16.10
2017-09-21T08:56:39.198Z,21.37
2017-09-21T08:59:06.678Z,18.67
2017-09-21T09:01:34.154Z,12.17
2017-09-21T09:04:01.625Z,12.47
2017-09-21T09:06:29.882Z,17.27
2017-09-21T09:08:57.376Z,15.00
2017-09-21T09:11:25.628Z,15.13
2017-09-21T09:13:53.125Z,17.70
2017-09-21T09:16:20.609Z,13.87
2017-09-21T09:18:48.089Z,14.50
2017-09-21T09:23:49.385Z,19.53
2017-09-21T09:26:17.635Z,14.97
2017-09-21T09:28:45.114Z,14.33
2017-09-21T09:31:12.599Z,20.43
2017-09-21T09:33:40.078Z,19.33
2017-09-21T09:36:07.558Z,12.97
2017-09-21T09:38:35.039Z,18.50
2017-09-21T09:41:03.710Z,16.13
2017-09-21T09:43:31.196Z,25.77
2017-09-21T09:45:59.446Z,18.30
2017-09-21T09:51:00.227Z,22.60
2017-09-21T09:53:28.483Z,13.27
2017-09-21T09:55:55.968Z,18.20
2017-09-21T09:58:24.232Z,14.53
2017-09-21T10:00:51.709Z,20.67
2017-09-21T10:03:19.958Z,24.43
2017-09-21T10:05:47.455Z,13.33
2017-09-21T10:08:15.741Z,19.10
2017-09-21T10:10:43.225Z,20.60
2017-09-21T10:13:10.750Z,23.77
2017-09-21T10:15:38.999Z,17.77
2017-09-21T10:18:06.477Z,15.63
2017-09-21T10:20:34.734Z,16.70
2017-09-21T10:23:02.228Z,19.23
2017-09-21T10:25:46.755Z,18.30
2017-09-21T10:28:14.241Z,17.50
2017-09-21T10:30:46.740Z,18.60
2017-09-21T10:33:14.228Z,18.13
2017-09-21T10:35:42.677Z,21.13
2017-09-21T10:38:10.150Z,8.13
2017-09-21T10:40:37.639Z,23.00
2017-09-21T10:43:05.158Z,17.40
2017-09-21T10:45:32.645Z,17.47
2017-09-21T10:48:00.135Z,29.40
2017-09-21T10:50:31.237Z,16.53
2017-09-21T10:52:58.723Z,23.87
2017-09-21T10:55:26.215Z,18.83
2017-09-21T10:57:53.703Z,12.30
2017-09-21T11:00:21.178Z,14.80
2017-09-21T11:02:48.662Z,16.97
2017-09-21T11:05:16.147Z,21.10
2017-09-21T11:07:44.385Z,19.37
2017-09-21T11:10:11.866Z,15.70
2017-09-21T11:12:40.120Z,20.33
2017-09-21T11:15:07.614Z,20.20
2017-09-21T11:17:35.861Z,18.13
2017-09-21T11:20:03.396Z,19.63
2017-09-21T11:22:31.618Z,18.77
2017-09-21T11:24:59.869Z,20.90
2017-09-21T11:27:27.390Z,30.77
2017-09-21T11:29:55.636Z,17.23
2017-09-21T11:32:23.946Z,21.90
2017-09-21T11:34:51.446Z,24.37
2017-09-21T11:37:18.936Z,18.63
2017-09-21T11:39:47.224Z,24.77
2017-09-21T11:42:14.719Z,41.43
2017-09-21T11:44:42.200Z,39.80
2017-09-21T11:47:09.709Z,16.57
2017-09-21T11:49:37.227Z,27.67
2017-09-21T11:52:04.771Z,25.07
2017-09-21T11:54:35.090Z,20.70
2017-09-21T11:57:02.695Z,25.20
2017-09-21T11:59:30.960Z,17.33
2017-09-21T12:01:59.212Z,13.03
2017-09-21T12:04:26.705Z,16.97
2017-09-21T12:06:54.983Z,324.20
2017-09-21T12:09:23.244Z,1898.43
2017-09-21T12:11:52.251Z,644.03
2017-09-21T12:14:20.507Z,38.70
2017-09-21T12:16:47.995Z,44.77
2017-09-21T12:19:16.251Z,25.43
2017-09-21T12:21:44.520Z,65.93
2017-09-21T12:24:13.511Z,22.03
2017-09-21T12:26:41.003Z,20.27
2017-09-21T12:29:09.256Z,22.20
2017-09-21T12:31:38.251Z,14.00
2017-09-21T12:34:06.501Z,21.70
2017-09-21T12:36:33.986Z,15.60
2017-09-21T12:39:02.264Z,21.37
2017-09-21T12:41:29.781Z,325.50
2017-09-21T12:43:58.066Z,86.20
2017-09-21T12:46:25.563Z,156.67
2017-09-21T12:48:53.072Z,190.93
2017-09-21T12:51:20.571Z,228.90
2017-09-21T12:53:48.055Z,120.53
2017-09-21T12:56:16.313Z,29.87
2017-09-21T12:58:45.305Z,111.23
2017-09-21T13:01:12.781Z,84.87
2017-09-21T13:03:43.788Z,84.13
2017-09-21T13:06:11.270Z,118.90
2017-09-21T13:08:39.528Z,23.30
2017-09-21T13:11:07.028Z,162.33
2017-09-21T13:13:35.283Z,66.80
2017-09-21T13:16:03.541Z,210.13
2017-09-21T13:18:31.059Z,149.63
2017-09-21T13:20:58.547Z,139.23
2017-09-21T13:23:26.043Z,37.83
2017-09-21T13:25:55.045Z,102.53
2017-09-21T13:28:23.304Z,85.57
2017-09-21T13:30:50.796Z,78.33
2017-09-21T13:33:18.286Z,47.60
2017-09-21T13:35:45.771Z,68.63
2017-09-21T13:38:13.257Z,287.67
2017-09-21T13:40:41.518Z,337.07
2017-09-21T13:43:09.783Z,361.20
2017-09-21T13:45:37.283Z,322.13
2017-09-21T13:48:19.503Z,184.23
2017-09-21T13:50:47.774Z,129.53
2017-09-21T13:53:15.266Z,159.13
2017-09-21T13:55:42.775Z,144.27
2017-09-21T13:58:11.034Z,115.83
2017-09-21T14:00:39.292Z,81.57
2017-09-21T14:03:06.786Z,44.43
2017-09-21T14:05:35.051Z,193.37
2017-09-21T14:08:09.299Z,237.60
2017-09-21T14:10:36.786Z,320.50
2017-09-21T14:13:04.292Z,234.77
2017-09-21T14:15:32.545Z,167.57
2017-09-21T14:18:00.031Z,97.77
2017-09-21T14:20:31.805Z,189.47
2017-09-21T14:23:00.075Z,164.57
2017-09-21T14:25:32.094Z,89.13
2017-09-21T14:27:59.582Z,115.50
2017-09-21T14:30:28.582Z,89.00
2017-09-21T14:32:56.838Z,64.10
2017-09-21T14:35:24.335Z,38.30
2017-09-21T14:37:52.578Z,79.40
2017-09-21T14:40:20.067Z,208.43
2017-09-21T14:42:48.321Z,447.07
2017-09-21T14:45:18.626Z,339.43
2017-09-21T14:47:46.119Z,301.53
2017-09-21T15:01:01.796Z,91.93
2017-09-21T15:03:30.056Z,70.00
2017-09-21T15:05:58.310Z,85.40
2017-09-21T15:08:25.789Z,33.47
2017-09-21T15:10:54.033Z,25.97
2017-09-21T15:13:21.511Z,69.83
2017-09-21T15:15:48.994Z,33.23
2017-09-21T15:18:17.251Z,67.80
2017-09-21T15:20:45.518Z,43.93
2017-09-21T15:23:12.993Z,29.93
2017-09-21T15:25:41.243Z,52.43
2017-09-21T15:28:08.743Z,29.97
2017-09-21T15:30:37.005Z,51.13
2017-09-21T15:33:05.263Z,22.27
2017-09-21T15:35:32.753Z,45.10
2017-09-21T15:38:01.008Z,32.23
2017-09-21T15:52:01.301Z,37.93
2017-09-21T15:54:28.788Z,66.60
2017-09-21T15:56:57.038Z,104.17
2017-09-21T15:59:24.522Z,114.37
2017-09-21T16:01:53.519Z,78.53
2017-09-21T16:04:21.784Z,124.90
2017-09-21T16:06:50.787Z,115.90
2017-09-21T16:09:19.051Z,25.77
2017-09-21T16:11:46.534Z,20.90
2017-09-21T16:14:14.783Z,83.93
2017-09-21T16:16:45.404Z,45.77
2017-09-21T16:19:12.894Z,52.67
2017-09-21T16:21:41.158Z,77.90
2017-09-21T16:24:09.418Z,504.47
2017-09-21T16:26:43.758Z,833.57
2017-09-21T16:29:27.636Z,391.03
2017-09-21T16:31:55.123Z,406.50
2017-09-21T16:34:22.624Z,627.03
2017-09-21T16:36:50.891Z,583.57
2017-09-21T16:39:18.391Z,443.67
2017-09-21T16:41:45.877Z,511.77
2017-09-21T16:44:13.367Z,486.90
2017-09-21T16:46:40.853Z,799.60
2017-09-21T16:49:23.091Z,892.20
2017-09-21T16:51:50.595Z,566.33
2017-09-21T16:54:18.099Z,659.03
2017-09-21T16:56:45.588Z,576.30
2017-09-21T16:59:13.078Z,108.33
2017-09-21T17:01:41.338Z,298.67
2017-09-21T17:04:08.830Z,162.90
2017-09-21T17:06:37.089Z,74.27
2017-09-21T17:09:04.587Z,21.90
2017-09-21T17:11:32.084Z,31.73
2017-09-21T17:13:59.586Z,13.73
2017-09-21T17:16:27.854Z,278.17
2017-09-21T17:18:56.124Z,285.10
2017-09-21T17:21:23.631Z,114.60
2017-09-21T17:23:51.116Z,63.60
2017-09-21T17:26:18.647Z,175.27
2017-09-21T17:28:46.167Z,335.53
2017-09-21T17:31:14.430Z,538.30
2017-09-21T17:33:41.954Z,826.00
2017-09-21T17:36:09.465Z,455.67
2017-09-21T17:38:38.192Z,652.03
2017-09-21T17:41:05.686Z,356.17
2017-09-21T17:43:33.188Z,100.07
2017-09-21T17:48:36.659Z,466.73
2017-09-21T17:51:04.146Z,52.87
2017-09-21T17:53:32.407Z,25.90
2017-09-21T17:55:59.923Z,90.80
2017-09-21T17:58:27.407Z,31.97
2017-09-21T18:00:54.905Z,17.20
2017-09-21T18:03:24.049Z,21.10
2017-09-21T18:05:51.530Z,30.90
2017-09-21T18:08:19.006Z,19.00
2017-09-21T18:10:56.415Z,11.63
2017-09-21T18:13:24.667Z,18.20
2017-09-21T18:15:52.163Z,14.33
2017-09-21T18:18:31.103Z,16.50
2017-09-21T18:20:58.598Z,18.80
2017-09-21T18:23:26.108Z,14.33
2017-09-21T18:25:54.364Z,26.60
2017-09-21T18:28:22.625Z,35.83
2017-09-21T18:30:50.114Z,29.07
2017-09-21T18:33:18.385Z,26.93
2017-09-21T18:35:46.662Z,35.57
2017-09-21T18:38:14.915Z,17.13
2017-09-21T18:40:42.385Z,12.43
2017-09-21T18:43:27.883Z,20.17
2017-09-21T18:45:58.658Z,15.50
2017-09-21T18:48:26.148Z,41.50
2017-09-21T18:50:53.646Z,18.17
2017-09-21T18:53:21.909Z,11.80
2017-09-21T18:55:50.172Z,41.03
2017-09-21T18:58:17.666Z,20.00
2017-09-21T19:00:45.176Z,17.43
2017-09-21T19:03:12.662Z,11.63
2017-09-21T19:05:40.979Z,13.60
2017-09-21T19:08:08.466Z,13.60
2017-09-21T19:11:08.824Z,13.90
2017-09-21T19:13:36.312Z,8.70
2017-09-21T19:16:03.833Z,10.37
2017-09-21T19:18:32.093Z,8.67
2017-09-21T19:20:59.580Z,12.40
2017-09-21T19:23:27.830Z,8.43
2017-09-21T19:25:55.305Z,7.63
2017-09-21T19:28:22.790Z,6.97
2017-09-21T19:30:51.048Z,12.70
2017-09-21T19:33:18.535Z,11.90
2017-09-21T19:35:46.032Z,18.17
2017-09-21T19:38:13.527Z,21.33
2017-09-21T19:40:41.778Z,14.30
2017-09-21T19:43:09.274Z,34.17
2017-09-21T19:45:37.586Z,15.50
2017-09-21T19:48:05.062Z,7.70
2017-09-21T19:50:32.544Z,15.50
2017-09-21T19:53:00.947Z,43.47
2017-09-21T19:55:29.196Z,16.13
2017-09-21T19:57:56.679Z,8.67
2017-09-21T20:00:24.927Z,14.50
2017-09-21T20:02:52.406Z,15.10
2017-09-21T20:05:19.879Z,8.07
2017-09-21T20:07:48.122Z,6.90
2017-09-21T20:10:15.612Z,30.53
2017-09-21T20:12:43.854Z,8.87
2017-09-21T20:15:11.332Z,37.50
2017-09-21T20:29:10.749Z,17.27
2017-09-21T20:31:39.007Z,44.47
2017-09-21T20:34:07.263Z,11.97
2017-09-21T20:36:34.763Z,22.07
2017-09-21T20:39:03.046Z,8.63
2017-09-21T20:41:30.527Z,9.07
2017-09-21T20:43:58.013Z,10.33
2017-09-21T20:46:25.494Z,48.97
2017-09-21T20:48:52.994Z,17.83
2017-09-21T20:51:35.351Z,6.73
2017-09-21T20:54:02.826Z,12.37
2017-09-21T20:59:27.708Z,11.73
2017-09-21T21:01:55.190Z,6.80
2017-09-21T21:04:22.673Z,15.87
2017-09-21T21:07:05.807Z,11.60
2017-09-21T21:09:33.277Z,6.93
2017-09-21T21:12:00.761Z,10.60
2017-09-21T21:14:29.226Z,5.77
2017-09-21T21:16:56.706Z,11.33
2017-09-21T21:19:24.194Z,16.07
2017-09-21T21:21:56.497Z,12.77
2017-09-21T21:24:23.982Z,22.80
2017-09-21T21:26:51.480Z,758.23
2017-09-21T21:29:19.726Z,29.57
2017-09-21T21:31:47.214Z,193.77
2017-09-21T21:34:14.709Z,11.63
2017-09-21T21:36:42.189Z,23.70
2017-09-21T21:39:09.679Z,6.67
2017-09-21T21:41:37.161Z,26.83
2017-09-21T21:44:05.419Z,18.87
2017-09-21T21:46:32.937Z,271.40
2017-09-21T21:49:00.432Z,43.43
2017-09-21T21:51:27.958Z,13.90
2017-09-21T21:53:55.449Z,286.83
2017-09-21T21:56:22.938Z,19.63
2017-09-21T21:58:56.281Z,12.23
2017-09-21T22:01:23.758Z,13.30
2017-09-21T22:03:51.256Z,10.40
2017-09-21T22:06:19.498Z,12.83
2017-09-21T22:08:46.987Z,43.37
2017-09-21T22:11:15.242Z,22.23
2017-09-21T22:13:42.730Z,15.17
2017-09-21T22:16:10.972Z,11.70
2017-09-21T22:18:38.483Z,24.50
2017-09-21T22:21:05.969Z,101.57
2017-09-21T22:23:33.512Z,14.90
2017-09-21T22:26:00.994Z,12.50
2017-09-21T22:28:28.492Z,93.60
2017-09-21T22:30:55.971Z,10.33
2017-09-21T22:33:24.222Z,8.27
2017-09-21T22:35:51.701Z,50.77
2017-09-21T22:38:24.955Z,95.77
2017-09-21T22:40:52.429Z,8.70
2017-09-21T22:43:34.873Z,10.20
2017-09-21T22:46:03.118Z,10.37
2017-09-21T22:48:32.096Z,6.63
2017-09-21T22:51:01.664Z,4.20
2017-09-21T22:53:31.986Z,6.90
2017-09-21T22:56:01.086Z,11.50
2017-09-21T22:58:28.569Z,12.63
2017-09-21T23:00:56.246Z,13.60
2017-09-21T23:03:23.731Z,18.83
2017-09-21T23:05:51.215Z,14.30
2017-09-21T23:08:19.450Z,14.20
2017-09-21T23:10:46.932Z,10.77
2017-09-21T23:13:15.175Z,15.83
2017-09-21T23:15:44.489Z,6.87
2017-09-21T23:18:11.966Z,5.40
2017-09-21T23:23:20.046Z,12.90
2017-09-21T23:25:47.542Z,12.10
2017-09-21T23:28:15.080Z,5.13
2017-09-21T23:30:42.558Z,10.00
2017-09-21T23:33:10.039Z,6.70
2017-09-21T23:35:38.278Z,6.50
2017-09-21T23:38:06.862Z,9.17
2017-09-21T23:40:40.467Z,13.40
2017-09-21T23:43:09.828Z,6.33
2017-09-21T23:45:46.646Z,6.83
2017-09-21T23:48:15.095Z,5.80
2017-09-21T23:50:46.826Z,7.90
2017-09-21T23:53:16.984Z,3.50
2017-09-21T23:55:46.487Z,6.97
2017-09-21T23:58:16.197Z,7.13
